sensor_id;sensor_type;location;lat;lon;timestamp;pressure;altitude;pressure_sealevel;temperature;humidity
67931;BME280;54726;52.000;5.954;2022-09-02T00:00:17;101398.53;;;16.30;47.26
67931;BME280;54726;52.000;5.954;2022-09-02T00:01:19;101375.88;;;16.20;46.93
67931;BME280;54726;52.000;5.954;2022-09-02T00:02:20;101393.16;;;16.30;47.00
67931;BME280;54726;52.000;5.954;2022-09-02T00:03:20;101398.66;;;16.27;46.85
67931;BME280;54726;52.000;5.954;2022-09-02T00:04:23;101396.09;;;16.25;47.11
67931;BME280;54726;52.000;5.954;2022-09-02T00:05:24;101408.69;;;16.23;47.16
67931;BME280;54726;52.000;5.954;2022-09-02T00:06:24;101401.63;;;16.22;47.32
67931;BME280;54726;52.000;5.954;2022-09-02T00:07:25;101394.88;;;16.15;47.05
67931;BME280;54726;52.000;5.954;2022-09-02T00:08:26;101390.47;;;16.14;47.13
67931;BME280;54726;52.000;5.954;2022-09-02T00:09:27;101394.06;;;16.13;47.27
67931;BME280;54726;52.000;5.954;2022-09-02T00:10:27;101397.72;;;16.12;47.53
67931;BME280;54726;52.000;5.954;2022-09-02T00:11:30;101398.69;;;16.11;47.32
67931;BME280;54726;52.000;5.954;2022-09-02T00:12:31;101396.16;;;16.08;47.38
67931;BME280;54726;52.000;5.954;2022-09-02T00:13:32;101388.44;;;16.02;47.96
67931;BME280;54726;52.000;5.954;2022-09-02T00:14:35;101394.53;;;16.05;47.67
67931;BME280;54726;52.000;5.954;2022-09-02T00:15:37;101395.38;;;16.06;47.43
67931;BME280;54726;52.000;5.954;2022-09-02T00:16:38;101398.13;;;16.04;47.45
67931;BME280;54726;52.000;5.954;2022-09-02T00:17:39;101395.56;;;16.03;47.49
67931;BME280;54726;52.000;5.954;2022-09-02T00:18:40;101390.28;;;16.01;47.54
67931;BME280;54726;52.000;5.954;2022-09-02T00:19:40;101393.97;;;15.99;47.65
67931;BME280;54726;52.000;5.954;2022-09-02T00:20:44;101388.63;;;15.99;47.77
67931;BME280;54726;52.000;5.954;2022-09-02T00:21:45;101386.97;;;15.96;47.56
67931;BME280;54726;52.000;5.954;2022-09-02T00:22:46;101390.72;;;15.94;47.96
67931;BME280;54726;52.000;5.954;2022-09-02T00:23:47;101388.09;;;15.92;47.65
67931;BME280;54726;52.000;5.954;2022-09-02T00:24:48;101388.28;;;15.89;48.04
67931;BME280;54726;52.000;5.954;2022-09-02T00:25:48;101386.56;;;15.88;47.79
67931;BME280;54726;52.000;5.954;2022-09-02T00:26:51;101385.66;;;15.87;47.96
67931;BME280;54726;52.000;5.954;2022-09-02T00:27:51;101387.59;;;15.85;47.94
67931;BME280;54726;52.000;5.954;2022-09-02T00:28:52;101384.97;;;15.84;47.84
67931;BME280;54726;52.000;5.954;2022-09-02T00:29:52;101382.47;;;15.81;47.76
67931;BME280;54726;52.000;5.954;2022-09-02T00:30:53;101369.66;;;15.70;47.86
67931;BME280;54726;52.000;5.954;2022-09-02T00:31:54;101378.25;;;15.77;47.94
67931;BME280;54726;52.000;5.954;2022-09-02T00:32:54;101384.47;;;15.77;48.09
67931;BME280;54726;52.000;5.954;2022-09-02T00:33:55;101382.81;;;15.75;48.13
67931;BME280;54726;52.000;5.954;2022-09-02T00:34:56;101378.38;;;15.74;48.16
67931;BME280;54726;52.000;5.954;2022-09-02T00:35:58;101375.88;;;15.71;48.23
67931;BME280;54726;52.000;5.954;2022-09-02T00:36:58;101380.38;;;15.70;48.20
67931;BME280;54726;52.000;5.954;2022-09-02T00:37:59;101385.81;;;15.69;48.23
67931;BME280;54726;52.000;5.954;2022-09-02T00:38:59;101383.19;;;15.67;48.37
67931;BME280;54726;52.000;5.954;2022-09-02T00:40:00;101384.13;;;15.66;48.33
67931;BME280;54726;52.000;5.954;2022-09-02T00:41:05;101378.00;;;15.64;48.50
67931;BME280;54726;52.000;5.954;2022-09-02T00:42:07;101380.84;;;15.61;48.58
67931;BME280;54726;52.000;5.954;2022-09-02T00:43:08;101383.59;;;15.59;48.52
67931;BME280;54726;52.000;5.954;2022-09-02T00:44:12;101362.69;;;15.50;48.76
67931;BME280;54726;52.000;5.954;2022-09-02T00:45:13;101375.09;;;15.51;48.50
67931;BME280;54726;52.000;5.954;2022-09-02T00:46:16;101369.75;;;15.51;48.48
67931;BME280;54726;52.000;5.954;2022-09-02T00:47:18;101360.34;;;15.44;48.28
67931;BME280;54726;52.000;5.954;2022-09-02T00:48:18;101371.56;;;15.51;48.84
67931;BME280;54726;52.000;5.954;2022-09-02T00:49:23;101364.72;;;15.45;48.85
67931;BME280;54726;52.000;5.954;2022-09-02T00:50:30;101372.25;;;15.54;48.82
67931;BME280;54726;52.000;5.954;2022-09-02T00:51:37;101376.75;;;15.54;48.76
67931;BME280;54726;52.000;5.954;2022-09-02T00:52:40;101368.19;;;15.47;49.00
67931;BME280;54726;52.000;5.954;2022-09-02T00:53:44;101372.53;;;15.50;48.64
67931;BME280;54726;52.000;5.954;2022-09-02T00:54:48;101366.53;;;15.44;48.94
67931;BME280;54726;52.000;5.954;2022-09-02T00:55:49;101369.06;;;15.48;48.91
67931;BME280;54726;52.000;5.954;2022-09-02T00:56:50;101371.72;;;15.48;48.93
67931;BME280;54726;52.000;5.954;2022-09-02T00:57:55;101368.25;;;15.45;48.81
67931;BME280;54726;52.000;5.954;2022-09-02T00:58:58;101369.22;;;15.44;49.10
67931;BME280;54726;52.000;5.954;2022-09-02T01:00:09;101369.16;;;15.46;48.81
67931;BME280;54726;52.000;5.954;2022-09-02T01:01:10;101363.94;;;15.43;49.17
67931;BME280;54726;52.000;5.954;2022-09-02T01:02:11;101364.22;;;15.38;48.86
67931;BME280;54726;52.000;5.954;2022-09-02T01:03:15;101356.34;;;15.35;48.73
67931;BME280;54726;52.000;5.954;2022-09-02T01:04:17;101359.03;;;15.35;48.72
67931;BME280;54726;52.000;5.954;2022-09-02T01:05:19;101364.44;;;15.34;48.79
67931;BME280;54726;52.000;5.954;2022-09-02T01:06:22;101361.84;;;15.32;49.04
67931;BME280;54726;52.000;5.954;2022-09-02T01:07:23;101355.72;;;15.30;48.99
67931;BME280;54726;52.000;5.954;2022-09-02T01:08:31;101363.75;;;15.30;48.94
67931;BME280;54726;52.000;5.954;2022-09-02T01:09:31;101359.25;;;15.31;49.02
67931;BME280;54726;52.000;5.954;2022-09-02T01:10:34;101359.41;;;15.28;48.91
67931;BME280;54726;52.000;5.954;2022-09-02T01:11:37;101358.47;;;15.29;49.16
67931;BME280;54726;52.000;5.954;2022-09-02T01:12:38;101351.72;;;15.21;49.37
67931;BME280;54726;52.000;5.954;2022-09-02T01:13:42;101357.94;;;15.22;49.41
67931;BME280;54726;52.000;5.954;2022-09-02T01:14:42;101357.13;;;15.20;49.29
67931;BME280;54726;52.000;5.954;2022-09-02T01:15:45;101354.41;;;15.21;49.28
67931;BME280;54726;52.000;5.954;2022-09-02T01:16:48;101356.97;;;15.23;49.51
67931;BME280;54726;52.000;5.954;2022-09-02T01:17:50;101356.03;;;15.24;49.15
67931;BME280;54726;52.000;5.954;2022-09-02T01:18:52;101347.94;;;15.26;49.12
67931;BME280;54726;52.000;5.954;2022-09-02T01:19:58;101349.06;;;15.21;49.27
67931;BME280;54726;52.000;5.954;2022-09-02T01:21:01;101348.03;;;15.24;49.35
67931;BME280;54726;52.000;5.954;2022-09-02T01:22:05;101359.47;;;15.26;49.40
67931;BME280;54726;52.000;5.954;2022-09-02T01:23:15;101356.81;;;15.26;49.37
67931;BME280;54726;52.000;5.954;2022-09-02T01:24:17;101355.88;;;15.27;49.66
67931;BME280;54726;52.000;5.954;2022-09-02T01:25:21;101347.25;;;15.22;48.90
67931;BME280;54726;52.000;5.954;2022-09-02T01:26:22;101354.28;;;15.23;49.43
67931;BME280;54726;52.000;5.954;2022-09-02T01:27:22;101347.16;;;15.24;49.41
67931;BME280;54726;52.000;5.954;2022-09-02T01:28:24;101341.25;;;15.17;49.34
67931;BME280;54726;52.000;5.954;2022-09-02T01:29:27;101355.19;;;15.24;49.34
67931;BME280;54726;52.000;5.954;2022-09-02T01:30:28;101357.84;;;15.24;49.35
67931;BME280;54726;52.000;5.954;2022-09-02T01:31:29;101347.47;;;15.17;49.45
67931;BME280;54726;52.000;5.954;2022-09-02T01:32:29;101346.59;;;15.17;49.27
67931;BME280;54726;52.000;5.954;2022-09-02T01:33:30;101356.97;;;15.23;49.43
67931;BME280;54726;52.000;5.954;2022-09-02T01:34:30;101351.56;;;15.25;49.39
67931;BME280;54726;52.000;5.954;2022-09-02T01:35:31;101354.13;;;15.26;49.23
67931;BME280;54726;52.000;5.954;2022-09-02T01:36:32;101353.28;;;15.26;49.45
67931;BME280;54726;52.000;5.954;2022-09-02T01:37:34;101344.56;;;15.22;49.28
67931;BME280;54726;52.000;5.954;2022-09-02T01:38:34;101355.09;;;15.25;49.36
67931;BME280;54726;52.000;5.954;2022-09-02T01:39:35;101346.13;;;15.26;49.66
67931;BME280;54726;52.000;5.954;2022-09-02T01:40:36;101347.88;;;15.27;49.44
67931;BME280;54726;52.000;5.954;2022-09-02T01:41:37;101316.59;;;15.12;49.41
67931;BME280;54726;52.000;5.954;2022-09-02T01:42:38;101347.00;;;15.27;49.42
67931;BME280;54726;52.000;5.954;2022-09-02T01:43:38;101327.03;;;15.16;49.66
67931;BME280;54726;52.000;5.954;2022-09-02T01:44:39;101351.41;;;15.28;49.37
67931;BME280;54726;52.000;5.954;2022-09-02T01:45:41;101351.34;;;15.29;49.18
67931;BME280;54726;52.000;5.954;2022-09-02T01:46:43;101345.09;;;15.29;49.24
67931;BME280;54726;52.000;5.954;2022-09-02T01:47:44;101345.19;;;15.27;49.04
67931;BME280;54726;52.000;5.954;2022-09-02T01:48:44;101325.06;;;15.20;49.21
67931;BME280;54726;52.000;5.954;2022-09-02T01:49:45;101338.03;;;15.28;49.33
67931;BME280;54726;52.000;5.954;2022-09-02T01:50:48;101338.88;;;15.28;49.16
67931;BME280;54726;52.000;5.954;2022-09-02T01:51:53;101339.84;;;15.27;49.24
67931;BME280;54726;52.000;5.954;2022-09-02T01:52:55;101340.78;;;15.26;49.30
67931;BME280;54726;52.000;5.954;2022-09-02T01:53:55;101340.78;;;15.26;49.44
67931;BME280;54726;52.000;5.954;2022-09-02T01:54:56;101335.59;;;15.23;49.21
67931;BME280;54726;52.000;5.954;2022-09-02T01:55:57;101332.84;;;15.25;49.75
67931;BME280;54726;52.000;5.954;2022-09-02T01:56:57;101334.66;;;15.24;49.23
67931;BME280;54726;52.000;5.954;2022-09-02T01:57:58;101338.03;;;15.28;49.58
67931;BME280;54726;52.000;5.954;2022-09-02T01:58:59;101343.38;;;15.28;49.58
67931;BME280;54726;52.000;5.954;2022-09-02T02:00:01;101339.84;;;15.27;49.38
67931;BME280;54726;52.000;5.954;2022-09-02T02:01:01;101326.97;;;15.18;49.34
67931;BME280;54726;52.000;5.954;2022-09-02T02:02:02;101340.63;;;15.29;49.38
67931;BME280;54726;52.000;5.954;2022-09-02T02:03:03;101337.19;;;15.27;49.44
67931;BME280;54726;52.000;5.954;2022-09-02T02:04:04;101340.63;;;15.29;49.12
67931;BME280;54726;52.000;5.954;2022-09-02T02:05:05;101339.75;;;15.29;49.30
67931;BME280;54726;52.000;5.954;2022-09-02T02:06:08;101336.31;;;15.27;49.52
67931;BME280;54726;52.000;5.954;2022-09-02T02:07:09;101336.22;;;15.28;49.27
67931;BME280;54726;52.000;5.954;2022-09-02T02:08:11;101333.53;;;15.28;49.32
67931;BME280;54726;52.000;5.954;2022-09-02T02:09:11;101338.81;;;15.30;49.52
67931;BME280;54726;52.000;5.954;2022-09-02T02:10:13;101344.16;;;15.30;49.48
67931;BME280;54726;52.000;5.954;2022-09-02T02:11:18;101330.09;;;15.26;49.50
67931;BME280;54726;52.000;5.954;2022-09-02T02:12:19;101344.25;;;15.28;49.16
67931;BME280;54726;52.000;5.954;2022-09-02T02:13:19;101335.59;;;15.23;49.63
67931;BME280;54726;52.000;5.954;2022-09-02T02:14:20;101337.19;;;15.27;49.52
67931;BME280;54726;52.000;5.954;2022-09-02T02:15:20;101338.88;;;15.28;49.34
67931;BME280;54726;52.000;5.954;2022-09-02T02:16:21;101331.03;;;15.25;49.19
67931;BME280;54726;52.000;5.954;2022-09-02T02:17:21;101337.19;;;15.27;49.44
67931;BME280;54726;52.000;5.954;2022-09-02T02:18:22;101337.25;;;15.26;49.45
67931;BME280;54726;52.000;5.954;2022-09-02T02:19:22;101338.09;;;15.26;49.54
67931;BME280;54726;52.000;5.954;2022-09-02T02:20:23;101322.41;;;15.20;49.44
67931;BME280;54726;52.000;5.954;2022-09-02T02:21:24;101295.69;;;15.03;49.35
67931;BME280;54726;52.000;5.954;2022-09-02T02:22:24;101334.56;;;15.26;49.41
67931;BME280;54726;52.000;5.954;2022-09-02T02:23:26;101331.13;;;15.24;49.45
67931;BME280;54726;52.000;5.954;2022-09-02T02:24:27;101328.53;;;15.22;49.55
67931;BME280;54726;52.000;5.954;2022-09-02T02:25:27;101326.81;;;15.21;49.58
67931;BME280;54726;52.000;5.954;2022-09-02T02:26:28;101334.84;;;15.21;49.51
67931;BME280;54726;52.000;5.954;2022-09-02T02:27:28;101336.72;;;15.19;49.70
67931;BME280;54726;52.000;5.954;2022-09-02T02:28:29;101324.38;;;15.16;49.71
67931;BME280;54726;52.000;5.954;2022-09-02T02:29:29;101325.22;;;15.17;49.52
67931;BME280;54726;52.000;5.954;2022-09-02T02:30:30;101324.38;;;15.16;49.81
67931;BME280;54726;52.000;5.954;2022-09-02T02:31:31;101328.75;;;15.17;49.51
67931;BME280;54726;52.000;5.954;2022-09-02T02:32:31;101303.66;;;15.04;49.97
67931;BME280;54726;52.000;5.954;2022-09-02T02:33:32;101333.19;;;15.18;49.49
67931;BME280;54726;52.000;5.954;2022-09-02T02:34:33;101334.03;;;15.19;49.56
67931;BME280;54726;52.000;5.954;2022-09-02T02:35:33;101313.91;;;15.12;49.70
67931;BME280;54726;52.000;5.954;2022-09-02T02:36:34;101321.75;;;15.15;49.68
67931;BME280;54726;52.000;5.954;2022-09-02T02:37:34;101325.22;;;15.17;49.60
67931;BME280;54726;52.000;5.954;2022-09-02T02:38:37;101326.09;;;15.17;49.93
67931;BME280;54726;52.000;5.954;2022-09-02T02:39:38;101328.84;;;15.16;49.78
67931;BME280;54726;52.000;5.954;2022-09-02T02:40:38;101329.72;;;15.16;49.95
67931;BME280;54726;52.000;5.954;2022-09-02T02:41:39;101327.09;;;15.15;50.03
67931;BME280;54726;52.000;5.954;2022-09-02T02:42:40;101321.88;;;15.13;49.77
67931;BME280;54726;52.000;5.954;2022-09-02T02:43:41;101325.41;;;15.14;49.77
67931;BME280;54726;52.000;5.954;2022-09-02T02:44:42;101337.09;;;15.11;49.98
67931;BME280;54726;52.000;5.954;2022-09-02T02:45:43;101327.44;;;15.09;49.75
67931;BME280;54726;52.000;5.954;2022-09-02T02:46:43;101331.84;;;15.10;49.76
67931;BME280;54726;52.000;5.954;2022-09-02T02:47:44;101327.44;;;15.09;50.16
67931;BME280;54726;52.000;5.954;2022-09-02T02:48:44;101331.84;;;15.10;49.86
67931;BME280;54726;52.000;5.954;2022-09-02T02:49:45;101336.31;;;15.09;49.86
67931;BME280;54726;52.000;5.954;2022-09-02T02:50:45;101333.63;;;15.09;50.06
67931;BME280;54726;52.000;5.954;2022-09-02T02:51:46;101323.28;;;15.03;50.01
67931;BME280;54726;52.000;5.954;2022-09-02T02:52:46;101329.31;;;15.07;49.89
67931;BME280;54726;52.000;5.954;2022-09-02T02:53:48;101328.44;;;15.06;50.08
67931;BME280;54726;52.000;5.954;2022-09-02T02:54:49;101325.88;;;15.05;49.82
67931;BME280;54726;52.000;5.954;2022-09-02T02:55:49;101331.22;;;15.05;50.15
67931;BME280;54726;52.000;5.954;2022-09-02T02:56:50;101311.25;;;14.94;50.17
67931;BME280;54726;52.000;5.954;2022-09-02T02:57:50;101324.38;;;14.99;49.98
67931;BME280;54726;52.000;5.954;2022-09-02T02:58:51;101332.16;;;15.04;50.16
67931;BME280;54726;52.000;5.954;2022-09-02T02:59:51;101325.94;;;15.03;50.18
67931;BME280;54726;52.000;5.954;2022-09-02T03:00:52;101327.91;;;14.99;50.30
67931;BME280;54726;52.000;5.954;2022-09-02T03:01:52;101298.38;;;14.85;50.32
67931;BME280;54726;52.000;5.954;2022-09-02T03:02:54;101329.56;;;15.02;50.23
67931;BME280;54726;52.000;5.954;2022-09-02T03:03:55;101335.84;;;15.01;50.07
67931;BME280;54726;52.000;5.954;2022-09-02T03:04:56;101328.72;;;15.02;50.34
67931;BME280;54726;52.000;5.954;2022-09-02T03:05:56;101326.91;;;15.02;50.24
67931;BME280;54726;52.000;5.954;2022-09-02T03:06:56;101326.03;;;15.02;49.95
67931;BME280;54726;52.000;5.954;2022-09-02T03:07:57;101332.31;;;15.00;50.28
67931;BME280;54726;52.000;5.954;2022-09-02T03:08:59;101327.06;;;14.99;50.30
67931;BME280;54726;52.000;5.954;2022-09-02T03:09:59;101313.94;;;14.94;50.36
67931;BME280;54726;52.000;5.954;2022-09-02T03:11:00;101318.09;;;15.00;50.29
67931;BME280;54726;52.000;5.954;2022-09-02T03:12:00;101321.94;;;14.94;50.40
67931;BME280;54726;52.000;5.954;2022-09-02T03:13:02;101323.66;;;14.95;50.63
67931;BME280;54726;52.000;5.954;2022-09-02T03:14:02;101308.91;;;14.88;50.59
67931;BME280;54726;52.000;5.954;2022-09-02T03:15:04;101320.13;;;14.95;50.36
67931;BME280;54726;52.000;5.954;2022-09-02T03:16:04;101327.28;;;14.94;50.55
67931;BME280;54726;52.000;5.954;2022-09-02T03:17:05;101321.09;;;14.94;50.29
67931;BME280;54726;52.000;5.954;2022-09-02T03:18:06;101320.38;;;14.90;50.40
67931;BME280;54726;52.000;5.954;2022-09-02T03:19:06;101328.25;;;14.93;50.35
67931;BME280;54726;52.000;5.954;2022-09-02T03:20:07;101327.38;;;14.93;50.33
67931;BME280;54726;52.000;5.954;2022-09-02T03:21:08;101307.25;;;14.86;50.54
67931;BME280;54726;52.000;5.954;2022-09-02T03:22:09;101315.97;;;14.89;50.66
67931;BME280;54726;52.000;5.954;2022-09-02T03:23:10;101318.41;;;14.94;50.48
67931;BME280;54726;52.000;5.954;2022-09-02T03:24:12;101321.09;;;14.94;50.55
67931;BME280;54726;52.000;5.954;2022-09-02T03:25:14;101312.22;;;14.93;50.46
67931;BME280;54726;52.000;5.954;2022-09-02T03:26:18;101316.69;;;14.93;50.46
67931;BME280;54726;52.000;5.954;2022-09-02T03:27:19;101310.63;;;14.89;50.70
67931;BME280;54726;52.000;5.954;2022-09-02T03:28:20;101321.16;;;14.92;50.57
67931;BME280;54726;52.000;5.954;2022-09-02T03:29:20;101321.25;;;14.91;50.76
67931;BME280;54726;52.000;5.954;2022-09-02T03:30:24;101322.03;;;14.93;50.67
67931;BME280;54726;52.000;5.954;2022-09-02T03:31:25;101325.56;;;14.93;50.40
67931;BME280;54726;52.000;5.954;2022-09-02T03:32:26;101304.66;;;14.84;50.36
67931;BME280;54726;52.000;5.954;2022-09-02T03:33:27;101319.44;;;14.91;50.89
67931;BME280;54726;52.000;5.954;2022-09-02T03:34:27;101317.63;;;14.92;50.70
67931;BME280;54726;52.000;5.954;2022-09-02T03:35:28;101318.56;;;14.91;50.46
67931;BME280;54726;52.000;5.954;2022-09-02T03:36:30;101312.38;;;14.90;51.28
67931;BME280;54726;52.000;5.954;2022-09-02T03:37:31;101310.72;;;14.88;50.66
67931;BME280;54726;52.000;5.954;2022-09-02T03:38:33;101298.59;;;14.81;50.74
67931;BME280;54726;52.000;5.954;2022-09-02T03:39:35;101315.09;;;14.89;50.79
67931;BME280;54726;52.000;5.954;2022-09-02T03:40:36;101306.22;;;14.88;50.77
67931;BME280;54726;52.000;5.954;2022-09-02T03:41:37;101310.63;;;14.89;50.86
67931;BME280;54726;52.000;5.954;2022-09-02T03:42:37;101315.09;;;14.89;50.64
67931;BME280;54726;52.000;5.954;2022-09-02T03:43:38;101308.06;;;14.88;50.72
67931;BME280;54726;52.000;5.954;2022-09-02T03:44:38;101301.84;;;14.87;50.91
67931;BME280;54726;52.000;5.954;2022-09-02T03:45:39;101303.88;;;14.82;50.92
67931;BME280;54726;52.000;5.954;2022-09-02T03:46:40;101301.91;;;14.86;51.16
67931;BME280;54726;52.000;5.954;2022-09-02T03:47:41;101301.91;;;14.86;50.77
67931;BME280;54726;52.000;5.954;2022-09-02T03:48:42;101308.97;;;14.87;50.61
67931;BME280;54726;52.000;5.954;2022-09-02T03:49:42;101308.97;;;14.87;50.66
67931;BME280;54726;52.000;5.954;2022-09-02T03:50:44;101303.72;;;14.85;50.81
67931;BME280;54726;52.000;5.954;2022-09-02T03:51:44;101307.25;;;14.86;50.96
67931;BME280;54726;52.000;5.954;2022-09-02T03:52:45;101304.75;;;14.83;50.95
67931;BME280;54726;52.000;5.954;2022-09-02T03:53:45;101304.66;;;14.84;51.34
67931;BME280;54726;52.000;5.954;2022-09-02T03:54:47;101301.06;;;14.85;50.98
67931;BME280;54726;52.000;5.954;2022-09-02T03:55:48;101295.78;;;14.84;50.90
67931;BME280;54726;52.000;5.954;2022-09-02T03:56:48;101305.59;;;14.83;51.13
67931;BME280;54726;52.000;5.954;2022-09-02T03:57:49;101302.06;;;14.83;51.00
67931;BME280;54726;52.000;5.954;2022-09-02T03:58:50;101292.34;;;14.82;50.98
67931;BME280;54726;52.000;5.954;2022-09-02T03:59:51;101299.47;;;14.81;50.82
67931;BME280;54726;52.000;5.954;2022-09-02T04:00:53;101296.78;;;14.81;51.17
67931;BME280;54726;52.000;5.954;2022-09-02T04:01:53;101288.94;;;14.78;51.02
67931;BME280;54726;52.000;5.954;2022-09-02T04:02:54;101289.91;;;14.77;50.86
67931;BME280;54726;52.000;5.954;2022-09-02T04:03:54;101299.56;;;14.80;51.02
67931;BME280;54726;52.000;5.954;2022-09-02T04:04:55;101296.03;;;14.79;50.88
67931;BME280;54726;52.000;5.954;2022-09-02T04:05:55;101293.38;;;14.79;50.99
67931;BME280;54726;52.000;5.954;2022-09-02T04:06:57;101288.03;;;14.79;51.17
67931;BME280;54726;52.000;5.954;2022-09-02T04:07:58;101282.03;;;14.74;51.10
67931;BME280;54726;52.000;5.954;2022-09-02T04:08:58;101289.75;;;14.80;51.18
67931;BME280;54726;52.000;5.954;2022-09-02T04:10:01;101288.88;;;14.80;51.12
67931;BME280;54726;52.000;5.954;2022-09-02T04:11:04;101292.47;;;14.78;51.20
67931;BME280;54726;52.000;5.954;2022-09-02T04:12:06;101292.47;;;14.78;51.19
67931;BME280;54726;52.000;5.954;2022-09-02T04:13:07;101286.28;;;14.78;51.13
67931;BME280;54726;52.000;5.954;2022-09-02T04:14:07;101284.56;;;14.77;50.97
67931;BME280;54726;52.000;5.954;2022-09-02T04:15:10;101291.78;;;14.75;51.07
67931;BME280;54726;52.000;5.954;2022-09-02T04:16:13;101289.09;;;14.75;51.29
67931;BME280;54726;52.000;5.954;2022-09-02T04:17:14;101286.44;;;14.75;51.18
67931;BME280;54726;52.000;5.954;2022-09-02T04:18:15;101290.06;;;14.74;51.17
67931;BME280;54726;52.000;5.954;2022-09-02T04:19:16;101283.06;;;14.71;51.38
67931;BME280;54726;52.000;5.954;2022-09-02T04:20:17;101289.09;;;14.75;51.11
67931;BME280;54726;52.000;5.954;2022-09-02T04:21:17;101281.25;;;14.72;51.23
67931;BME280;54726;52.000;5.954;2022-09-02T04:22:18;101284.63;;;14.75;51.40
67931;BME280;54726;52.000;5.954;2022-09-02T04:23:18;101282.22;;;14.71;51.31
67931;BME280;54726;52.000;5.954;2022-09-02T04:24:19;101288.19;;;14.76;51.15
67931;BME280;54726;52.000;5.954;2022-09-02T04:25:21;101287.28;;;14.75;51.56
67931;BME280;54726;52.000;5.954;2022-09-02T04:26:21;101282.84;;;14.76;51.21
67931;BME280;54726;52.000;5.954;2022-09-02T04:27:22;101273.41;;;14.69;51.46
67931;BME280;54726;52.000;5.954;2022-09-02T04:28:23;101271.59;;;14.69;51.22
67931;BME280;54726;52.000;5.954;2022-09-02T04:29:23;101283.75;;;14.75;51.15
67931;BME280;54726;52.000;5.954;2022-09-02T04:30:24;101278.75;;;14.69;51.09
67931;BME280;54726;52.000;5.954;2022-09-02T04:31:25;101277.63;;;14.73;51.77
67931;BME280;54726;52.000;5.954;2022-09-02T04:32:25;101287.38;;;14.74;51.32
67931;BME280;54726;52.000;5.954;2022-09-02T04:33:26;101281.09;;;14.75;51.16
67931;BME280;54726;52.000;5.954;2022-09-02T04:34:26;101280.25;;;14.74;51.15
67931;BME280;54726;52.000;5.954;2022-09-02T04:35:27;101279.38;;;14.74;51.44
67931;BME280;54726;52.000;5.954;2022-09-02T04:36:28;101285.56;;;14.74;51.15
67931;BME280;54726;52.000;5.954;2022-09-02T04:37:29;101279.38;;;14.74;51.31
67931;BME280;54726;52.000;5.954;2022-09-02T04:38:29;101278.53;;;14.73;51.26
67931;BME280;54726;52.000;5.954;2022-09-02T04:39:30;101283.84;;;14.73;51.19
67931;BME280;54726;52.000;5.954;2022-09-02T04:40:31;101282.97;;;14.73;51.45
67931;BME280;54726;52.000;5.954;2022-09-02T04:41:32;101277.63;;;14.73;51.40
67931;BME280;54726;52.000;5.954;2022-09-02T04:42:32;101275.91;;;14.72;51.71
67931;BME280;54726;52.000;5.954;2022-09-02T04:43:33;101283.13;;;14.70;51.14
67931;BME280;54726;52.000;5.954;2022-09-02T04:44:33;101277.78;;;14.70;51.38
67931;BME280;54726;52.000;5.954;2022-09-02T04:45:34;101276.28;;;14.64;51.52
67931;BME280;54726;52.000;5.954;2022-09-02T04:46:35;101277.94;;;14.67;51.23
67931;BME280;54726;52.000;5.954;2022-09-02T04:47:35;101281.56;;;14.66;51.50
67931;BME280;54726;52.000;5.954;2022-09-02T04:48:36;101278.97;;;14.64;51.21
67931;BME280;54726;52.000;5.954;2022-09-02T04:49:37;101281.63;;;14.64;51.76
67931;BME280;54726;52.000;5.954;2022-09-02T04:50:39;101276.38;;;14.63;51.71
67931;BME280;54726;52.000;5.954;2022-09-02T04:51:40;101282.59;;;14.63;51.65
67931;BME280;54726;52.000;5.954;2022-09-02T04:52:40;101279.97;;;14.62;51.78
67931;BME280;54726;52.000;5.954;2022-09-02T04:53:41;101279.13;;;14.61;51.57
67931;BME280;54726;52.000;5.954;2022-09-02T04:54:42;101287.22;;;14.60;51.73
67931;BME280;54726;52.000;5.954;2022-09-02T04:55:43;101283.69;;;14.59;51.68
67931;BME280;54726;52.000;5.954;2022-09-02T04:56:44;101276.72;;;14.57;51.79
67931;BME280;54726;52.000;5.954;2022-09-02T04:57:44;101278.50;;;14.56;51.72
67931;BME280;54726;52.000;5.954;2022-09-02T04:58:45;101281.25;;;14.54;51.72
67931;BME280;54726;52.000;5.954;2022-09-02T04:59:45;101280.44;;;14.52;51.81
67931;BME280;54726;52.000;5.954;2022-09-02T05:00:46;101275.19;;;14.51;51.93
67931;BME280;54726;52.000;5.954;2022-09-02T05:01:46;101275.25;;;14.49;51.79
67931;BME280;54726;52.000;5.954;2022-09-02T05:02:47;101281.53;;;14.48;51.70
67931;BME280;54726;52.000;5.954;2022-09-02T05:03:48;101278.06;;;14.46;51.96
67931;BME280;54726;52.000;5.954;2022-09-02T05:04:49;101282.44;;;14.47;52.01
67931;BME280;54726;52.000;5.954;2022-09-02T05:05:57;101276.47;;;14.42;52.11
67931;BME280;54726;52.000;5.954;2022-09-02T05:06:58;101278.91;;;14.47;52.10
67931;BME280;54726;52.000;5.954;2022-09-02T05:07:58;101266.84;;;14.40;51.97
67931;BME280;54726;52.000;5.954;2022-09-02T05:08:59;101278.13;;;14.45;51.93
67931;BME280;54726;52.000;5.954;2022-09-02T05:09:59;101288.81;;;14.45;51.90
67931;BME280;54726;52.000;5.954;2022-09-02T05:11:03;101280.03;;;14.43;52.00
67931;BME280;54726;52.000;5.954;2022-09-02T05:12:04;101280.88;;;14.43;51.90
67931;BME280;54726;52.000;5.954;2022-09-02T05:13:05;101275.72;;;14.40;51.87
67931;BME280;54726;52.000;5.954;2022-09-02T05:14:06;101278.22;;;14.43;52.26
67931;BME280;54726;52.000;5.954;2022-09-02T05:15:07;101282.59;;;14.44;52.16
67931;BME280;54726;52.000;5.954;2022-09-02T05:16:08;101282.59;;;14.44;52.47
67931;BME280;54726;52.000;5.954;2022-09-02T05:17:08;101269.50;;;14.40;52.24
67931;BME280;54726;52.000;5.954;2022-09-02T05:18:08;101278.13;;;14.45;51.96
67931;BME280;54726;52.000;5.954;2022-09-02T05:19:09;101260.88;;;14.35;52.40
67931;BME280;54726;52.000;5.954;2022-09-02T05:20:10;101277.28;;;14.44;52.00